Time;durP1;ratioP1;P1;durP2;ratioP2;P2;SDS_P1;SDS_P2;PMS_P1;PMS_P2;Temp;Humidity;BMP_temperature;BMP_pressure;BME280_temperature;BME280_humidity;BME280_pressure;Samples;Min_cycle;Max_cycle;Signal;HPM_P1;HPM_P2
2023/02/22 00:01:36;;;;;;;10.63;4.95;;;4.20;60.70;;;;;;5049231;28;20595;-72
2023/02/22 00:04:06;;;;;;;7.13;4.55;;;4.20;61.60;;;;;;5049563;28;20304;-72
2023/02/22 00:06:35;;;;;;;8.65;4.07;;;4.10;61.00;;;;;;5048951;28;20189;-75
2023/02/22 00:09:02;;;;;;;6.05;3.70;;;4.10;60.70;;;;;;5048803;28;20189;-71
2023/02/22 00:11:30;;;;;;;5.35;3.47;;;4.10;61.00;;;;;;5050239;28;20589;-72
2023/02/22 00:13:57;;;;;;;7.35;3.03;;;4.00;61.10;;;;;;5051033;28;20255;-73
2023/02/22 00:16:25;;;;;;;5.22;3.25;;;3.90;61.80;;;;;;5051585;28;20258;-73
2023/02/22 00:18:53;;;;;;;5.30;2.88;;;3.90;62.50;;;;;;5051360;28;20284;-78
2023/02/22 00:21:20;;;;;;;3.88;2.50;;;3.90;62.80;;;;;;5051745;28;20250;-71
2023/02/22 00:23:49;;;;;;;5.22;3.08;;;3.80;62.80;;;;;;5051505;28;20262;-72
2023/02/22 00:26:18;;;;;;;4.88;2.53;;;3.80;62.90;;;;;;5051555;28;20643;-71
2023/02/22 00:28:46;;;;;;;5.22;3.42;;;3.80;63.40;;;;;;5051698;28;20530;-71
2023/02/22 00:31:14;;;;;;;4.72;3.00;;;3.70;64.20;;;;;;5051416;28;20239;-71
2023/02/22 00:33:41;;;;;;;7.57;3.47;;;3.70;64.60;;;;;;5054057;28;20268;-71
2023/02/22 00:36:10;;;;;;;6.82;3.83;;;3.70;65.20;;;;;;5054803;28;20223;-71
2023/02/22 00:38:37;;;;;;;6.90;3.20;;;3.60;65.60;;;;;;5055471;28;20261;-71
2023/02/22 00:41:06;;;;;;;7.05;2.80;;;3.60;65.50;;;;;;5055189;28;20217;-71
2023/02/22 00:43:33;;;;;;;5.97;3.17;;;3.70;65.00;;;;;;5055215;28;20650;-71
2023/02/22 00:46:00;;;;;;;4.35;2.78;;;3.60;64.70;;;;;;5054773;28;20195;-71
2023/02/22 00:48:27;;;;;;;8.50;4.13;;;3.60;64.50;;;;;;5054942;28;20284;-73
2023/02/22 00:50:55;;;;;;;6.68;3.20;;;3.60;64.70;;;;;;5055070;28;20189;-71
2023/02/22 00:53:22;;;;;;;6.82;3.63;;;3.50;64.90;;;;;;5054822;28;20532;-72
2023/02/22 00:55:50;;;;;;;6.35;3.70;;;3.50;65.30;;;;;;5054766;28;20188;-72
2023/02/22 00:58:19;;;;;;;6.60;3.83;;;3.60;65.20;;;;;;5054802;28;20266;-71
2023/02/22 01:00:46;;;;;;;6.47;3.45;;;3.60;65.20;;;;;;5054495;28;20280;-71
2023/02/22 01:03:16;;;;;;;7.20;3.88;;;3.50;65.20;;;;;;5054404;28;20228;-71
2023/02/22 01:05:43;;;;;;;6.00;4.85;;;3.60;64.70;;;;;;5054398;28;20203;-71
2023/02/22 01:08:12;;;;;;;8.98;4.50;;;3.60;64.70;;;;;;5054837;28;20551;-71
2023/02/22 01:10:40;;;;;;;11.27;5.28;;;3.50;64.80;;;;;;5054626;28;20233;-72
2023/02/22 01:13:10;;;;;;;13.00;5.47;;;3.60;65.10;;;;;;5054605;28;20229;-71
2023/02/22 01:15:41;;;;;;;15.40;6.50;;;3.60;65.50;;;;;;5054549;28;20269;-72
2023/02/22 01:18:08;;;;;;;6.25;3.83;;;3.60;66.30;;;;;;5054531;28;20317;-71
2023/02/22 01:20:35;;;;;;;13.30;5.97;;;3.60;66.10;;;;;;5054493;28;20285;-71
2023/02/22 01:23:06;;;;;;;8.88;3.95;;;3.60;65.40;;;;;;5054642;28;20245;-77
2023/02/22 01:25:34;;;;;;;9.82;3.72;;;3.60;64.50;;;;;;5054316;28;20325;-71
2023/02/22 01:28:02;;;;;;;5.18;3.78;;;3.60;64.80;;;;;;5054229;28;20642;-71
2023/02/22 01:30:31;;;;;;;5.47;3.60;;;3.50;65.00;;;;;;5053775;28;20289;-71
2023/02/22 01:33:00;;;;;;;6.75;3.33;;;3.50;65.70;;;;;;5054080;28;20192;-71
2023/02/22 01:35:29;;;;;;;7.78;3.38;;;3.50;65.40;;;;;;5054230;28;20744;-72
2023/02/22 01:37:57;;;;;;;7.35;3.67;;;3.50;65.00;;;;;;5054184;28;20216;-72
2023/02/22 01:40:28;;;;;;;5.75;3.45;;;3.40;64.50;;;;;;5054039;28;20200;-76
2023/02/22 01:42:57;;;;;;;7.88;3.70;;;3.40;64.30;;;;;;5054019;28;20284;-71
2023/02/22 01:45:49;;;;;;;6.10;3.80;;;3.30;64.50;;;;;;5054546;28;20260;-72
2023/02/22 01:48:24;;;;;;;6.45;3.33;;;3.20;65.40;;;;;;5053537;28;20230;-71
2023/02/22 01:50:57;;;;;;;6.97;3.88;;;3.20;65.90;;;;;;5054010;28;20188;-72
2023/02/22 01:53:29;;;;;;;5.32;2.72;;;3.30;66.00;;;;;;5053903;28;20507;-71
2023/02/22 01:55:57;;;;;;;5.30;3.35;;;3.20;65.80;;;;;;5054018;28;20194;-71
2023/02/22 01:58:26;;;;;;;7.60;3.30;;;3.10;65.90;;;;;;5053705;28;20223;-70
2023/02/22 02:00:53;;;;;;;4.47;2.75;;;3.10;65.30;;;;;;5053617;28;20231;-72
2023/02/22 02:03:26;;;;;;;5.38;2.63;;;3.00;65.40;;;;;;5053793;28;20197;-72
2023/02/22 02:05:55;;;;;;;9.43;3.88;;;2.90;66.20;;;;;;5053776;28;20204;-72
2023/02/22 02:08:36;;;;;;;3.70;2.80;;;2.90;67.10;;;;;;5053628;28;20282;-71
2023/02/22 02:11:05;;;;;;;4.45;2.92;;;2.90;67.30;;;;;;5053612;28;20192;-71
2023/02/22 02:13:33;;;;;;;6.95;3.35;;;;;;;;;;5053495;28;20280;-72
2023/02/22 02:16:00;;;;;;;5.80;3.20;;;2.90;68.80;;;;;;5053214;28;20252;-72
2023/02/22 02:18:31;;;;;;;5.80;2.75;;;2.90;68.80;;;;;;5053060;28;20311;-72
2023/02/22 02:21:30;;;;;;;6.28;3.63;;;2.90;69.00;;;;;;5053224;28;20274;-71
2023/02/22 02:24:33;;;;;;;5.40;3.20;;;3.00;68.60;;;;;;5053039;28;20196;-71
2023/02/22 02:27:11;;;;;;;5.35;3.08;;;3.00;67.90;;;;;;5053271;28;20287;-71
2023/02/22 02:30:29;;;;;;;4.00;2.85;;;2.90;67.20;;;;;;5053328;28;20191;-71
2023/02/22 02:33:06;;;;;;;6.35;2.88;;;2.90;66.20;;;;;;5053048;28;20195;-72
2023/02/22 02:35:47;;;;;;;5.70;2.80;;;2.80;65.90;;;;;;5052865;28;20610;-71
2023/02/22 02:38:29;;;;;;;5.75;2.70;;;2.80;66.90;;;;;;5052889;28;20327;-71
2023/02/22 02:41:05;;;;;;;7.80;3.70;;;2.80;66.80;;;;;;5053084;28;20222;-72
2023/02/22 02:43:37;;;;;;;6.80;3.50;;;2.80;66.50;;;;;;5053243;28;20493;-71
2023/02/22 02:46:09;;;;;;;7.60;3.45;;;2.70;66.50;;;;;;5052740;28;20194;-71
2023/02/22 02:48:41;;;;;;;5.00;3.38;;;2.70;66.80;;;;;;5052639;28;20197;-71
2023/02/22 02:51:13;;;;;;;4.63;3.50;;;2.60;67.70;;;;;;5052980;28;20286;-70
2023/02/22 02:53:44;;;;;;;5.90;3.67;;;2.60;68.60;;;;;;5052892;28;20285;-71
2023/02/22 02:56:11;;;;;;;5.68;2.90;;;2.60;69.20;;;;;;5052117;28;20191;-71
2023/02/22 02:58:47;;;;;;;5.15;2.42;;;2.50;68.80;;;;;;5052352;28;20222;-71
2023/02/22 03:01:20;;;;;;;7.65;3.05;;;2.50;69.00;;;;;;5052347;28;20219;-71
2023/02/22 03:04:10;;;;;;;9.05;3.47;;;2.50;69.60;;;;;;5052459;28;20199;-71
2023/02/22 03:07:01;;;;;;;4.22;3.00;;;2.60;69.90;;;;;;5048935;28;20222;-71
2023/02/22 03:09:46;;;;;;;5.07;2.67;;;2.70;70.10;;;;;;5052412;28;20250;-71
2023/02/22 03:12:27;;;;;;;6.65;3.30;;;2.60;68.80;;;;;;5052454;28;20190;-71
2023/02/22 03:15:04;;;;;;;6.75;3.33;;;2.60;68.20;;;;;;5051914;28;20204;-71
2023/02/22 03:17:42;;;;;;;5.15;2.47;;;2.60;68.50;;;;;;5052306;28;20211;-71
2023/02/22 03:20:14;;;;;;;4.97;3.15;;;2.60;69.40;;;;;;5051844;28;20630;-72
2023/02/22 03:22:47;;;;;;;8.88;4.25;;;2.70;70.00;;;;;;5052003;28;20231;-71
2023/02/22 03:25:19;;;;;;;9.02;4.72;;;2.70;70.30;;;;;;5052003;28;20735;-71
2023/02/22 03:27:52;;;;;;;8.50;3.92;;;2.70;70.40;;;;;;5052237;28;20285;-72
2023/02/22 03:30:23;;;;;;;5.07;2.55;;;2.70;70.20;;;;;;5052159;28;20194;-71
2023/02/22 03:32:56;;;;;;;5.20;2.33;;;2.70;69.60;;;;;;5052115;28;20541;-72
2023/02/22 03:35:29;;;;;;;4.63;3.20;;;2.70;69.40;;;;;;5052093;28;20192;-71
2023/02/22 03:38:00;;;;;;;4.22;2.63;;;2.60;69.40;;;;;;5052190;28;20219;-72
2023/02/22 03:40:31;;;;;;;5.75;2.42;;;2.50;69.00;;;;;;5052153;28;20191;-71
2023/02/22 03:43:04;;;;;;;6.85;2.78;;;2.50;68.70;;;;;;5052122;28;20227;-71
2023/02/22 03:45:33;;;;;;;6.07;2.83;;;2.50;69.00;;;;;;5052077;28;20225;-71
2023/02/22 03:48:09;;;;;;;5.22;2.72;;;2.40;69.40;;;;;;5051589;28;20192;-71
2023/02/22 03:50:38;;;;;;;4.65;2.30;;;2.40;69.40;;;;;;5051748;28;20195;-71
2023/02/22 03:53:06;;;;;;;4.93;2.95;;;2.40;68.60;;;;;;5051605;28;20202;-71
2023/02/22 03:55:34;;;;;;;4.13;2.83;;;2.40;69.20;;;;;;5051992;28;20195;-72
2023/02/22 03:58:04;;;;;;;4.80;2.88;;;2.30;69.60;;;;;;5051888;28;20299;-71
2023/02/22 04:00:33;;;;;;;4.57;2.55;;;2.30;70.00;;;;;;5052012;28;20238;-71
2023/02/22 04:03:01;;;;;;;4.40;2.80;;;2.30;69.60;;;;;;5051625;28;20287;-72
2023/02/22 04:05:28;;;;;;;5.38;2.70;;;2.40;69.90;;;;;;5051856;28;20236;-71
2023/02/22 04:07:57;;;;;;;6.07;3.28;;;2.40;70.20;;;;;;5053574;28;20293;-73
2023/02/22 04:10:25;;;;;;;4.07;2.28;;;2.40;70.00;;;;;;5055860;28;20291;-71
2023/02/22 04:12:52;;;;;;;5.55;2.50;;;2.30;69.70;;;;;;5055809;28;20281;-71
2023/02/22 04:15:24;;;;;;;3.45;2.05;;;2.30;69.80;;;;;;5055692;28;20241;-70
2023/02/22 04:17:51;;;;;;;5.35;2.58;;;2.30;70.00;;;;;;5055801;28;20600;-70
2023/02/22 04:20:24;;;;;;;4.70;2.78;;;2.40;70.10;;;;;;5055563;28;20302;-71
2023/02/22 04:22:52;;;;;;;6.10;3.70;;;2.40;70.40;;;;;;5055969;28;20203;-72
2023/02/22 04:25:21;;;;;;;6.15;3.90;;;2.40;69.70;;;;;;5055879;28;20217;-70
2023/02/22 04:27:49;;;;;;;6.28;4.00;;;2.40;69.70;;;;;;5055554;28;20270;-70
2023/02/22 04:30:17;;;;;;;5.78;3.30;;;2.30;70.40;;;;;;5055318;28;20223;-70
2023/02/22 04:32:45;;;;;;;7.30;3.28;;;2.20;70.90;;;;;;5055331;28;20230;-70
2023/02/22 04:35:12;;;;;;;4.70;3.08;;;2.20;70.90;;;;;;5055561;28;20222;-70
2023/02/22 04:37:39;;;;;;;5.30;3.30;;;2.20;70.90;;;;;;5055166;28;20658;-71
2023/02/22 04:40:07;;;;;;;6.50;3.50;;;2.20;71.10;;;;;;5055204;28;20190;-71
2023/02/22 04:42:36;;;;;;;4.35;3.17;;;2.10;71.30;;;;;;5055454;28;20273;-71
2023/02/22 04:45:04;;;;;;;5.20;2.95;;;2.10;71.20;;;;;;5055277;28;20227;-71
2023/02/22 04:47:31;;;;;;;4.45;2.15;;;2.00;71.60;;;;;;5055142;28;20230;-72
2023/02/22 04:49:59;;;;;;;6.25;3.10;;;2.00;71.80;;;;;;5055310;28;20226;-72
2023/02/22 04:52:26;;;;;;;4.63;2.90;;;2.00;71.80;;;;;;5055146;28;20281;-73
2023/02/22 04:54:53;;;;;;;4.00;2.83;;;1.90;71.50;;;;;;5055010;28;20198;-72
2023/02/22 04:57:21;;;;;;;3.70;2.80;;;1.90;70.90;;;;;;5055068;28;20289;-71
2023/02/22 04:59:49;;;;;;;3.28;2.67;;;1.80;70.70;;;;;;5055037;28;20260;-71
2023/02/22 05:02:17;;;;;;;6.15;2.20;;;1.80;71.10;;;;;;5053852;28;20265;-71
2023/02/22 05:04:44;;;;;;;5.70;2.30;;;1.80;71.80;;;;;;5053421;28;20270;-71
2023/02/22 05:07:11;;;;;;;4.32;2.35;;;1.80;72.10;;;;;;5053632;28;20201;-70
2023/02/22 05:09:38;;;;;;;5.60;2.80;;;1.80;72.50;;;;;;5053405;28;20228;-72
2023/02/22 05:12:06;;;;;;;4.63;2.53;;;1.80;73.00;;;;;;5053473;28;20229;-72
2023/02/22 05:14:33;;;;;;;4.97;2.47;;;1.80;72.90;;;;;;5053386;28;20288;-71
2023/02/22 05:17:02;;;;;;;4.07;2.50;;;1.80;72.50;;;;;;5053489;28;20281;-72
2023/02/22 05:19:29;;;;;;;5.30;2.10;;;1.80;72.20;;;;;;5053114;28;20688;-72
2023/02/22 05:21:56;;;;;;;3.60;2.22;;;1.90;72.40;;;;;;5053528;28;20583;-72
2023/02/22 05:24:23;;;;;;;3.45;1.95;;;2.00;72.70;;;;;;5053620;28;20242;-71
2023/02/22 05:26:52;;;;;;;2.85;1.90;;;2.00;72.80;;;;;;5053706;28;20277;-71
2023/02/22 05:29:19;;;;;;;3.70;2.00;;;2.10;72.90;;;;;;5053565;28;20190;-71
2023/02/22 05:31:46;;;;;;;8.60;2.47;;;2.10;72.70;;;;;;5053636;28;20190;-71
2023/02/22 05:34:14;;;;;;;4.30;2.85;;;2.10;72.50;;;;;;5053158;28;20195;-71
2023/02/22 05:36:41;;;;;;;3.78;2.25;;;2.10;72.40;;;;;;5053101;28;20239;-71
2023/02/22 05:39:08;;;;;;;8.27;3.45;;;2.10;72.60;;;;;;5053660;28;20222;-71
2023/02/22 05:41:35;;;;;;;4.57;2.80;;;2.10;72.60;;;;;;5053790;28;20240;-71
2023/02/22 05:44:02;;;;;;;3.55;1.95;;;2.10;72.30;;;;;;5053452;28;20194;-71
2023/02/22 05:46:30;;;;;;;4.10;2.38;;;2.10;72.00;;;;;;5053588;28;20201;-71
2023/02/22 05:48:57;;;;;;;4.15;2.45;;;2.10;71.10;;;;;;5053500;28;20602;-71
2023/02/22 05:51:25;;;;;;;4.90;2.80;;;2.00;70.90;;;;;;5054368;28;20194;-71
2023/02/22 05:53:53;;;;;;;4.72;2.45;;;2.00;71.50;;;;;;5052613;28;20183;-70
2023/02/22 05:56:25;;;;;;;3.92;2.47;;;1.90;71.80;;;;;;5053127;28;20194;-72
2023/02/22 05:58:52;;;;;;;7.35;2.97;;;1.90;72.00;;;;;;5052901;28;20226;-70
2023/02/22 06:01:20;;;;;;;8.90;4.57;;;1.90;72.10;;;;;;5007559;28;1296078;-70
2023/02/22 06:03:52;;;;;;;7.95;4.22;;;1.90;71.70;;;;;;5053747;28;20194;-71
2023/02/22 06:06:20;;;;;;;11.85;6.32;;;1.90;71.20;;;;;;5062281;28;20193;-70
2023/02/22 06:08:48;;;;;;;12.77;5.00;;;1.90;71.00;;;;;;5074021;28;20277;-71
2023/02/22 06:11:15;;;;;;;7.28;3.78;;;1.90;71.00;;;;;;5064950;28;20196;-71
2023/02/22 06:13:48;;;;;;;5.70;3.92;;;1.90;70.50;;;;;;5057405;28;20198;-71
2023/02/22 06:16:15;;;;;;;7.15;2.60;;;1.90;70.10;;;;;;5053059;28;20275;-70
2023/02/22 06:18:42;;;;;;;4.78;2.55;;;1.80;69.60;;;;;;5053246;28;20214;-70
2023/02/22 06:21:10;;;;;;;4.93;2.95;;;1.80;68.50;;;;;;5064550;28;20736;-70
2023/02/22 06:23:37;;;;;;;4.47;2.47;;;1.70;68.00;;;;;;5042639;28;20195;-71
2023/02/22 06:26:06;;;;;;;5.20;2.97;;;1.70;68.20;;;;;;5057214;28;20187;-70
2023/02/22 06:28:33;;;;;;;5.93;3.50;;;1.60;68.60;;;;;;5052646;28;20596;-71
2023/02/22 06:31:00;;;;;;;4.03;3.03;;;1.60;69.30;;;;;;5059748;28;20194;-70
2023/02/22 06:33:27;;;;;;;4.93;3.20;;;1.60;68.90;;;;;;5053258;28;20604;-70
2023/02/22 06:35:55;;;;;;;5.45;3.38;;;1.70;68.10;;;;;;5062394;28;20190;-70
2023/02/22 06:38:23;;;;;;;5.50;3.38;;;1.80;67.70;;;;;;5052768;28;20571;-70
2023/02/22 06:40:51;;;;;;;11.73;4.10;;;1.80;67.50;;;;;;5065718;28;20269;-71
2023/02/22 06:43:20;;;;;;;7.88;5.07;;;1.90;67.80;;;;;;5073452;28;20197;-71
2023/02/22 06:45:47;;;;;;;9.88;5.65;;;2.00;67.70;;;;;;5061132;28;20229;-71
2023/02/22 06:48:14;;;;;;;8.48;4.07;;;2.10;67.70;;;;;;5056802;28;20228;-71
2023/02/22 06:50:41;;;;;;;7.20;5.85;;;2.30;68.10;;;;;;5052990;28;20281;-71
2023/02/22 06:53:09;;;;;;;9.63;7.93;;;2.40;68.20;;;;;;5072085;28;20185;-70
2023/02/22 06:55:36;;;;;;;10.07;6.30;;;2.60;68.30;;;;;;5065906;28;20182;-71
2023/02/22 06:58:05;;;;;;;7.22;4.93;;;2.90;67.90;;;;;;5052613;28;20214;-71
2023/02/22 07:00:33;;;;;;;10.23;4.00;;;3.20;66.60;;;;;;5062861;28;20272;-70
2023/02/22 07:03:05;;;;;;;4.95;3.40;;;3.40;66.20;;;;;;5072911;28;20225;-71
2023/02/22 07:05:35;;;;;;;8.32;4.28;;;3.70;65.50;;;;;;5071199;28;20219;-71
2023/02/22 07:08:04;;;;;;;9.98;4.93;;;4.10;64.50;;;;;;5053261;28;20677;-71
2023/02/22 07:10:33;;;;;;;8.60;5.28;;;4.30;62.90;;;;;;5052805;28;20202;-71
2023/02/22 07:13:00;;;;;;;10.98;6.05;;;4.50;62.40;;;;;;5056802;28;20277;-71
2023/02/22 07:15:29;;;;;;;8.32;4.93;;;4.80;61.60;;;;;;5053761;28;20611;-70
2023/02/22 07:18:00;;;;;;;15.73;6.20;;;5.10;61.00;;;;;;5032069;28;20228;-71
2023/02/22 07:20:29;;;;;;;11.20;6.55;;;5.50;59.30;;;;;;5032358;28;20209;-70
2023/02/22 07:22:56;;;;;;;10.18;5.40;;;5.90;59.00;;;;;;5032927;28;20230;-71
2023/02/22 07:25:24;;;;;;;8.63;5.60;;;6.30;58.30;;;;;;5043950;28;20281;-71
2023/02/22 07:27:52;;;;;;;6.63;4.15;;;6.80;56.80;;;;;;5051399;28;20240;-71
2023/02/22 07:30:24;;;;;;;5.00;3.60;;;7.20;55.50;;;;;;5052772;28;20248;-71
2023/02/22 07:32:52;;;;;;;7.28;3.97;;;7.70;54.90;;;;;;5052259;28;20667;-71
2023/02/22 07:35:24;;;;;;;8.13;4.28;;;8.20;53.80;;;;;;5052982;28;20281;-71
2023/02/22 07:37:51;;;;;;;6.57;3.78;;;8.70;53.10;;;;;;5052394;28;20225;-73
2023/02/22 07:40:19;;;;;;;8.15;4.95;;;9.20;51.90;;;;;;5052631;28;20218;-71
2023/02/22 07:42:53;;;;;;;12.68;4.75;;;9.50;50.30;;;;;;5052783;28;20237;-71
2023/02/22 07:45:21;;;;;;;8.77;3.90;;;9.70;49.40;;;;;;5052891;28;20228;-72
2023/02/22 07:47:48;;;;;;;6.30;4.18;;;10.00;48.20;;;;;;5052811;28;20310;-71
2023/02/22 07:50:16;;;;;;;7.30;3.85;;;10.30;47.20;;;;;;5052842;28;20277;-71
2023/02/22 07:52:47;;;;;;;7.40;4.45;;;10.50;45.70;;;;;;5052677;28;20603;-71
2023/02/22 07:55:15;;;;;;;5.25;4.10;;;10.50;44.50;;;;;;5052469;28;20248;-71
2023/02/22 07:57:43;;;;;;;8.10;3.83;;;10.50;44.80;;;;;;5051934;28;20628;-71
2023/02/22 08:00:13;;;;;;;7.70;5.88;;;10.80;44.80;;;;;;5052300;28;20336;-71
2023/02/22 08:02:40;;;;;;;12.23;6.15;;;11.20;44.40;;;;;;5052318;28;20226;-71
2023/02/22 08:05:09;;;;;;;8.20;5.20;;;11.70;43.80;;;;;;5048457;28;20289;-71
2023/02/22 08:07:36;;;;;;;6.60;3.58;;;12.20;42.70;;;;;;5051532;28;20238;-71
2023/02/22 08:10:06;;;;;;;8.48;4.40;;;12.80;41.80;;;;;;5051312;28;20281;-71
2023/02/22 08:12:33;;;;;;;6.35;3.92;;;13.30;40.90;;;;;;5051014;28;20664;-72
2023/02/22 08:15:00;;;;;;;6.03;3.55;;;13.90;39.50;;;;;;5051022;28;20248;-72
2023/02/22 08:17:27;;;;;;;8.80;3.42;;;14.30;38.60;;;;;;5051260;28;20282;-72
2023/02/22 08:19:54;;;;;;;11.30;6.15;;;14.80;37.20;;;;;;5051686;28;20685;-72
2023/02/22 08:22:22;;;;;;;10.10;6.65;;;15.40;36.60;;;;;;5051310;28;20693;-73
2023/02/22 08:24:52;;;;;;;8.80;5.30;;;16.30;35.30;;;;;;5051348;28;20316;-71
2023/02/22 08:27:25;;;;;;;7.40;4.25;;;17.30;33.70;;;;;;5051339;28;20294;-72
2023/02/22 08:29:52;;;;;;;8.03;4.90;;;18.60;31.70;;;;;;5051331;28;20186;-72
2023/02/22 08:32:19;;;;;;;11.83;5.17;;;19.70;29.80;;;;;;5051604;28;20491;-72
2023/02/22 08:34:46;;;;;;;8.20;4.90;;;20.60;29.00;;;;;;5051630;28;20855;-72
2023/02/22 08:37:14;;;;;;;11.20;5.43;;;21.30;28.20;;;;;;5048666;28;20473;-71
2023/02/22 08:39:41;;;;;;;8.20;4.87;;;22.40;27.60;;;;;;5051332;28;20512;-72
2023/02/22 08:42:09;;;;;;;5.97;4.27;;;23.70;26.30;;;;;;5051961;28;20520;-72
2023/02/22 08:44:38;;;;;;;6.10;4.20;;;24.90;25.00;;;;;;5051806;28;20441;-72
2023/02/22 08:47:06;;;;;;;6.27;4.77;;;26.10;23.20;;;;;;5051893;28;20475;-74
2023/02/22 08:49:33;;;;;;;6.90;4.07;;;27.10;22.10;;;;;;5051405;28;20441;-72
2023/02/22 08:52:00;;;;;;;5.90;3.70;;;28.30;21.00;;;;;;5051415;28;20528;-72
2023/02/22 08:54:27;;;;;;;5.00;3.00;;;29.70;20.00;;;;;;5054287;28;20608;-72
2023/02/22 08:56:54;;;;;;;5.27;3.47;;;30.70;18.10;;;;;;5054970;28;20436;-74
2023/02/22 08:59:20;;;;;;;6.90;3.37;;;31.60;17.00;;;;;;5055423;28;20520;-73
2023/02/22 09:01:49;;;;;;;4.07;3.03;;;32.90;15.90;;;;;;5055198;28;20543;-72
2023/02/22 09:04:16;;;;;;;6.10;2.83;;;33.90;15.30;;;;;;5055349;28;20535;-72
2023/02/22 09:06:47;;;;;;;3.30;2.60;;;34.50;14.10;;;;;;5055401;28;20833;-72
2023/02/22 09:09:14;;;;;;;4.73;2.53;;;35.00;13.70;;;;;;5054856;28;20421;-72
2023/02/22 09:11:41;;;;;;;4.90;2.90;;;35.90;12.70;;;;;;5055180;28;20476;-72
2023/02/22 09:14:07;;;;;;;4.20;2.57;;;36.70;12.00;;;;;;5054931;28;20451;-72
2023/02/22 09:16:36;;;;;;;7.70;3.40;;;37.60;11.80;;;;;;5054851;28;20932;-72
2023/02/22 09:19:05;;;;;;;4.00;2.83;;;38.20;11.20;;;;;;5054644;28;20491;-74
2023/02/22 09:21:32;;;;;;;5.00;2.87;;;38.60;10.60;;;;;;5054570;28;20472;-72
2023/02/22 09:24:07;;;;;;;3.67;2.93;;;39.20;10.10;;;;;;5054516;28;20813;-72
2023/02/22 09:26:34;;;;;;;5.20;3.20;;;40.10;9.70;;;;;;5054660;28;20443;-73
2023/02/22 09:29:01;;;;;;;6.30;3.40;;;40.90;9.00;;;;;;5054800;28;20528;-73
2023/02/22 09:31:28;;;;;;;6.87;3.20;;;41.50;8.70;;;;;;5054848;28;20787;-73
2023/02/22 09:33:55;;;;;;;6.87;3.10;;;41.40;8.40;;;;;;5054792;28;20441;-73
2023/02/22 09:36:23;;;;;;;6.10;2.97;;;41.00;8.00;;;;;;5054278;28;20478;-73
2023/02/22 09:38:51;;;;;;;4.90;2.73;;;38.80;8.30;;;;;;5054841;28;20527;-73
2023/02/22 09:41:31;;;;;;;4.37;2.30;;;36.60;9.80;;;;;;5054915;28;20485;-72
2023/02/22 09:44:14;;;;;;;4.73;2.93;;;36.20;10.50;;;;;;5054636;28;20583;-72
2023/02/22 09:46:44;;;;;;;5.13;2.70;;;37.60;10.50;;;;;;5054688;28;20440;-72
2023/02/22 09:49:21;;;;;;;7.23;2.70;;;39.60;9.80;;;;;;5054544;28;20477;-72
2023/02/22 09:51:54;;;;;;;4.10;2.60;;;41.30;8.80;;;;;;5054568;28;20764;-72
2023/02/22 09:54:26;;;;;;;4.47;2.67;;;42.20;8.20;;;;;;5053919;28;20436;-73
2023/02/22 09:56:57;;;;;;;3.40;1.90;;;41.80;8.00;;;;;;5054198;28;20491;-73
2023/02/22 09:59:29;;;;;;;4.00;2.33;;;41.50;7.00;;;;;;5054107;28;20473;-72
2023/02/22 10:02:05;;;;;;;3.03;1.70;;;42.30;7.60;;;;;;5054264;28;20496;-73
2023/02/22 10:04:41;;;;;;;4.00;2.10;;;42.90;7.20;;;;;;5053141;28;20436;-73
2023/02/22 10:07:18;;;;;;;2.70;1.77;;;43.90;6.90;;;;;;5054166;28;20436;-73
2023/02/22 10:09:47;;;;;;;2.73;1.60;;;44.10;5.80;;;;;;5054255;28;20440;-73
2023/02/22 10:12:23;;;;;;;3.70;1.53;;;44.20;5.70;;;;;;5054138;28;20517;-72
2023/02/22 10:15:17;;;;;;;4.33;2.70;;;42.40;6.10;;;;;;5053909;28;20511;-71
2023/02/22 10:17:52;;;;;;;4.40;2.43;;;39.60;7.60;;;;;;5053476;28;20460;-72
2023/02/22 10:20:29;;;;;;;3.23;2.00;;;39.10;8.90;;;;;;5053771;28;20527;-71
2023/02/22 10:23:10;;;;;;;6.73;1.57;;;40.50;8.60;;;;;;5053640;28;20959;-72
2023/02/22 10:25:38;;;;;;;3.60;2.00;;;42.30;8.10;;;;;;5053838;28;20440;-72
2023/02/22 10:28:13;;;;;;;4.00;1.87;;;43.50;7.40;;;;;;5053817;28;20480;-72
2023/02/22 10:30:43;;;;;;;4.30;1.80;;;42.00;5.90;;;;;;5053816;28;20482;-72
2023/02/22 10:33:15;;;;;;;4.90;1.73;;;38.60;7.00;;;;;;5053657;28;20524;-71
2023/02/22 10:35:43;;;;;;;4.60;2.20;;;35.50;8.40;;;;;;5053671;28;20491;-71
2023/02/22 10:38:19;;;;;;;6.13;2.20;;;32.90;9.50;;;;;;5053712;28;20496;-71
2023/02/22 10:40:50;;;;;;;2.60;1.60;;;30.50;10.80;;;;;;5053214;28;20498;-70
2023/02/22 10:43:17;;;;;;;3.27;1.50;;;28.70;12.20;;;;;;5053358;28;20982;-70
2023/02/22 10:45:46;;;;;;;4.77;2.10;;;27.30;13.70;;;;;;5053370;28;20522;-70
2023/02/22 10:48:17;;;;;;;4.50;1.87;;;26.20;15.40;;;;;;5053429;28;20995;-70
2023/02/22 10:50:45;;;;;;;3.23;2.33;;;25.50;16.20;;;;;;5052919;28;20481;-71
2023/02/22 10:53:14;;;;;;;6.00;2.33;;;26.10;16.00;;;;;;5053206;28;20528;-71
2023/02/22 10:56:12;;;;;;;3.13;1.60;;;27.70;16.00;;;;;;5052889;28;20811;-70
2023/02/22 10:58:52;;;;;;;3.30;1.83;;;29.30;13.80;;;;;;5053218;28;20436;-70
2023/02/22 11:01:26;;;;;;;4.47;2.30;;;29.10;12.30;;;;;;5053018;28;20499;-71
2023/02/22 11:04:02;;;;;;;5.70;1.50;;;30.30;12.70;;;;;;5053529;28;20477;-72
2023/02/22 11:06:30;;;;;;;4.47;1.57;;;32.60;11.40;;;;;;5052828;28;20919;-71
2023/02/22 11:09:09;;;;;;;5.03;1.60;;;34.20;10.70;;;;;;5053158;28;20536;-72
2023/02/22 11:11:40;;;;;;;3.87;1.30;;;35.50;10.60;;;;;;5053109;28;20939;-71
2023/02/22 11:14:09;;;;;;;3.27;2.20;;;36.50;9.60;;;;;;5053169;28;20444;-71
2023/02/22 11:16:39;;;;;;;4.00;2.60;;;36.90;8.80;;;;;;5052751;28;20533;-71
2023/02/22 11:19:19;;;;;;;4.67;1.70;;;37.10;9.30;;;;;;5052798;28;20448;-72
2023/02/22 11:21:50;;;;;;;3.07;1.73;;;37.80;9.10;;;;;;5052413;28;20508;-72
2023/02/22 11:24:19;;;;;;;4.30;1.60;;;38.90;8.70;;;;;;5052964;28;20446;-72
2023/02/22 11:26:51;;;;;;;2.97;1.70;;;40.90;8.40;;;;;;5052587;28;20532;-72
2023/02/22 11:29:25;;;;;;;7.63;1.83;;;42.10;6.90;;;;;;5052872;28;20463;-72
2023/02/22 11:31:53;;;;;;;4.33;1.90;;;42.60;7.30;;;;;;5052834;28;20447;-72
2023/02/22 11:34:32;;;;;;;4.30;1.97;;;42.40;6.20;;;;;;5052827;28;20519;-72
2023/02/22 11:37:21;;;;;;;7.83;2.33;;;41.10;6.80;;;;;;5052156;28;20748;-72
2023/02/22 11:39:50;;;;;;;3.90;1.83;;;40.10;7.20;;;;;;5052589;28;20765;-72
2023/02/22 11:42:26;;;;;;;4.83;2.30;;;38.80;7.80;;;;;;5052485;28;20936;-71
2023/02/22 11:45:09;;;;;;;2.90;1.70;;;37.20;8.40;;;;;;5052513;28;20553;-72
2023/02/22 11:47:46;;;;;;;3.87;1.80;;;35.20;9.30;;;;;;5052378;28;20820;-71
2023/02/22 11:50:22;;;;;;;3.93;1.80;;;33.90;10.40;;;;;;5052361;28;20453;-71
2023/02/22 11:52:54;;;;;;;4.17;2.00;;;32.40;11.40;;;;;;5052521;28;20480;-70
2023/02/22 11:55:29;;;;;;;5.03;1.90;;;31.20;12.50;;;;;;5052416;28;20540;-71
2023/02/22 11:58:09;;;;;;;5.60;1.80;;;30.30;12.90;;;;;;5052352;28;20491;-72
2023/02/22 12:00:50;;;;;;;2.93;1.70;;;29.40;13.60;;;;;;5052293;28;20567;-71
2023/02/22 12:03:40;;;;;;;4.63;1.87;;;29.40;14.70;;;;;;5052313;28;20435;-72
2023/02/22 12:06:18;;;;;;;5.53;1.70;;;33.20;13.60;;;;;;5052021;28;20441;-71
2023/02/22 12:08:54;;;;;;;3.10;1.43;;;34.50;11.80;;;;;;5052429;28;20440;-71
2023/02/22 12:11:35;;;;;;;4.53;2.00;;;34.70;11.80;;;;;;5052227;28;20972;-72
2023/02/22 12:14:16;;;;;;;4.57;2.33;;;35.70;10.50;;;;;;5052213;28;20512;-71
2023/02/22 12:16:59;;;;;;;4.57;2.10;;;36.60;10.70;;;;;;5052320;28;20441;-71
2023/02/22 12:19:31;;;;;;;4.80;2.90;;;37.70;10.20;;;;;;5051567;28;20977;-72
2023/02/22 12:22:03;;;;;;;5.10;2.77;;;37.50;9.40;;;;;;5051973;28;20571;-72
2023/02/22 12:24:36;;;;;;;3.70;2.47;;;39.40;9.30;;;;;;5052073;28;20619;-72
2023/02/22 12:27:13;;;;;;;4.30;2.73;;;41.70;8.50;;;;;;5052053;28;20441;-74
2023/02/22 12:29:48;;;;;;;5.10;3.27;;;43.40;7.30;;;;;;5055075;28;20490;-72
2023/02/22 12:32:19;;;;;;;7.83;2.53;;;44.70;7.20;;;;;;5056000;28;20560;-73
2023/02/22 12:34:53;;;;;;;6.17;2.57;;;45.30;6.40;;;;;;5055949;28;20464;-72
2023/02/22 12:37:25;;;;;;;4.20;2.10;;;45.90;6.10;;;;;;5056081;28;20554;-72
2023/02/22 12:40:08;;;;;;;3.33;2.13;;;47.00;5.70;;;;;;5055969;28;20440;-70
2023/02/22 12:42:53;;;;;;;3.90;2.10;;;46.90;5.60;;;;;;5055797;28;20547;-70
2023/02/22 12:45:33;;;;;;;3.20;2.27;;;47.10;5.50;;;;;;5055851;28;20432;-73
2023/02/22 12:48:22;;;;;;;4.37;2.70;;;47.20;5.60;;;;;;5055593;28;20927;-72
2023/02/22 12:50:54;;;;;;;4.57;2.73;;;46.50;5.20;;;;;;5055561;28;20485;-72
2023/02/22 12:53:28;;;;;;;5.00;1.67;;;45.70;5.60;;;;;;5055518;28;20433;-73
2023/02/22 12:56:02;;;;;;;3.77;1.40;;;45.70;5.10;;;;;;5055711;28;20452;-72
2023/02/22 12:58:36;;;;;;;3.67;1.80;;;45.80;5.60;;;;;;5055379;28;20866;-72
2023/02/22 13:01:11;;;;;;;4.30;2.10;;;46.10;5.10;;;;;;5055155;28;20507;-72
2023/02/22 13:03:41;;;;;;;6.77;2.47;;;46.10;4.80;;;;;;5055130;28;20446;-72
2023/02/22 13:06:31;;;;;;;3.40;1.80;;;43.80;5.00;;;;;;5055283;28;20520;-72
2023/02/22 13:09:15;;;;;;;5.10;2.07;;;40.90;5.80;;;;;;5055471;28;20539;-71
2023/02/22 13:11:49;;;;;;;3.33;2.00;;;37.90;7.40;;;;;;5054884;28;21069;-71
2023/02/22 13:14:33;;;;;;;4.03;1.70;;;35.40;8.90;;;;;;5054948;28;20942;-71
2023/02/22 13:17:09;;;;;;;5.30;2.40;;;33.40;10.00;;;;;;5054729;28;20870;-71